sensor_id;sensor_type;location;lat;lon;timestamp;temperature;humidity
33943;DHT22;66763;47.856;17.462;2023-04-29T00:02:17;16.30;45.00
33943;DHT22;66763;47.856;17.462;2023-04-29T00:04:43;16.30;45.00
33943;DHT22;66763;47.856;17.462;2023-04-29T00:07:08;16.40;45.00
33943;DHT22;66763;47.856;17.462;2023-04-29T00:09:34;16.40;45.00
33943;DHT22;66763;47.856;17.462;2023-04-29T00:12:00;16.30;45.00
33943;DHT22;66763;47.856;17.462;2023-04-29T00:14:26;16.30;45.00
33943;DHT22;66763;47.856;17.462;2023-04-29T00:16:52;16.40;45.00
33943;DHT22;66763;47.856;17.462;2023-04-29T00:19:17;16.30;45.00
33943;DHT22;66763;47.856;17.462;2023-04-29T00:21:43;16.30;45.00
33943;DHT22;66763;47.856;17.462;2023-04-29T00:24:08;16.30;45.00
33943;DHT22;66763;47.856;17.462;2023-04-29T00:26:34;16.30;45.00
33943;DHT22;66763;47.856;17.462;2023-04-29T00:28:59;16.30;45.00
33943;DHT22;66763;47.856;17.462;2023-04-29T00:31:25;16.30;45.00
33943;DHT22;66763;47.856;17.462;2023-04-29T00:33:50;16.30;45.00
33943;DHT22;66763;47.856;17.462;2023-04-29T00:36:16;16.30;45.00
33943;DHT22;66763;47.856;17.462;2023-04-29T00:38:41;16.30;45.00
33943;DHT22;66763;47.856;17.462;2023-04-29T00:41:07;16.30;45.00
33943;DHT22;66763;47.856;17.462;2023-04-29T00:43:33;16.30;45.00
33943;DHT22;66763;47.856;17.462;2023-04-29T00:45:58;16.30;45.00
33943;DHT22;66763;47.856;17.462;2023-04-29T00:48:24;16.30;45.00
33943;DHT22;66763;47.856;17.462;2023-04-29T00:50:49;16.40;45.10
33943;DHT22;66763;47.856;17.462;2023-04-29T00:53:15;16.30;45.00
33943;DHT22;66763;47.856;17.462;2023-04-29T00:55:42;16.30;45.00
33943;DHT22;66763;47.856;17.462;2023-04-29T00:58:08;16.30;45.00
33943;DHT22;66763;47.856;17.462;2023-04-29T01:00:34;16.30;45.10
33943;DHT22;66763;47.856;17.462;2023-04-29T01:03:01;16.30;45.10
33943;DHT22;66763;47.856;17.462;2023-04-29T01:05:27;16.30;45.10
33943;DHT22;66763;47.856;17.462;2023-04-29T01:07:58;16.40;45.10
33943;DHT22;66763;47.856;17.462;2023-04-29T01:10:28;16.30;45.10
33943;DHT22;66763;47.856;17.462;2023-04-29T01:13:03;16.30;45.10
33943;DHT22;66763;47.856;17.462;2023-04-29T01:15:35;16.30;45.10
33943;DHT22;66763;47.856;17.462;2023-04-29T01:20:28;16.30;45.10
33943;DHT22;66763;47.856;17.462;2023-04-29T01:22:54;16.30;45.10
33943;DHT22;66763;47.856;17.462;2023-04-29T01:25:20;16.30;45.10
33943;DHT22;66763;47.856;17.462;2023-04-29T01:37:55;16.30;45.10
33943;DHT22;66763;47.856;17.462;2023-04-29T01:40:25;16.30;45.10
33943;DHT22;66763;47.856;17.462;2023-04-29T01:42:55;16.30;45.10
33943;DHT22;66763;47.856;17.462;2023-04-29T01:45:24;16.30;45.10
33943;DHT22;66763;47.856;17.462;2023-04-29T01:47:51;16.30;45.10
33943;DHT22;66763;47.856;17.462;2023-04-29T01:50:17;16.30;45.10
33943;DHT22;66763;47.856;17.462;2023-04-29T01:52:43;16.30;45.10
33943;DHT22;66763;47.856;17.462;2023-04-29T01:55:09;16.30;45.00
33943;DHT22;66763;47.856;17.462;2023-04-29T01:57:35;16.30;45.10
33943;DHT22;66763;47.856;17.462;2023-04-29T02:00:00;16.40;45.10
33943;DHT22;66763;47.856;17.462;2023-04-29T02:02:26;16.30;45.00
33943;DHT22;66763;47.856;17.462;2023-04-29T02:04:51;16.40;45.10
33943;DHT22;66763;47.856;17.462;2023-04-29T02:07:17;16.30;45.00
33943;DHT22;66763;47.856;17.462;2023-04-29T02:09:42;16.30;45.00
33943;DHT22;66763;47.856;17.462;2023-04-29T02:12:08;16.30;45.00
33943;DHT22;66763;47.856;17.462;2023-04-29T02:14:33;16.30;45.00
33943;DHT22;66763;47.856;17.462;2023-04-29T02:16:59;16.30;45.00
33943;DHT22;66763;47.856;17.462;2023-04-29T02:19:24;16.40;45.10
33943;DHT22;66763;47.856;17.462;2023-04-29T02:21:50;16.30;45.00
33943;DHT22;66763;47.856;17.462;2023-04-29T02:24:15;16.40;45.10
33943;DHT22;66763;47.856;17.462;2023-04-29T02:26:41;16.40;45.00
33943;DHT22;66763;47.856;17.462;2023-04-29T02:29:07;16.30;45.00
33943;DHT22;66763;47.856;17.462;2023-04-29T02:31:33;16.40;45.00
33943;DHT22;66763;47.856;17.462;2023-04-29T02:33:58;16.40;45.00
33943;DHT22;66763;47.856;17.462;2023-04-29T02:36:24;16.30;44.90
33943;DHT22;66763;47.856;17.462;2023-04-29T02:38:51;16.30;45.00
33943;DHT22;66763;47.856;17.462;2023-04-29T02:41:18;16.40;45.00
33943;DHT22;66763;47.856;17.462;2023-04-29T02:43:43;16.40;45.10
33943;DHT22;66763;47.856;17.462;2023-04-29T02:46:09;16.30;45.00
33943;DHT22;66763;47.856;17.462;2023-04-29T02:48:35;16.30;45.00
33943;DHT22;66763;47.856;17.462;2023-04-29T02:51:01;16.30;45.00
33943;DHT22;66763;47.856;17.462;2023-04-29T02:53:26;16.30;45.00
33943;DHT22;66763;47.856;17.462;2023-04-29T02:55:52;16.30;45.10
33943;DHT22;66763;47.856;17.462;2023-04-29T02:58:17;16.30;45.00
33943;DHT22;66763;47.856;17.462;2023-04-29T03:00:42;16.30;45.00
33943;DHT22;66763;47.856;17.462;2023-04-29T03:03:08;16.40;45.10
33943;DHT22;66763;47.856;17.462;2023-04-29T03:05:34;16.30;45.10
33943;DHT22;66763;47.856;17.462;2023-04-29T03:08:00;16.30;45.10
33943;DHT22;66763;47.856;17.462;2023-04-29T03:10:25;16.30;45.10
33943;DHT22;66763;47.856;17.462;2023-04-29T03:12:51;16.30;45.10
33943;DHT22;66763;47.856;17.462;2023-04-29T03:15:16;16.30;45.10
33943;DHT22;66763;47.856;17.462;2023-04-29T03:17:42;16.30;45.10
33943;DHT22;66763;47.856;17.462;2023-04-29T03:20:09;16.30;45.10
33943;DHT22;66763;47.856;17.462;2023-04-29T03:22:35;16.30;45.10
33943;DHT22;66763;47.856;17.462;2023-04-29T03:25:01;16.30;45.10
33943;DHT22;66763;47.856;17.462;2023-04-29T03:27:26;16.30;45.10
33943;DHT22;66763;47.856;17.462;2023-04-29T03:29:52;16.30;45.10
33943;DHT22;66763;47.856;17.462;2023-04-29T03:32:17;16.30;45.20
33943;DHT22;66763;47.856;17.462;2023-04-29T03:34:43;16.30;45.10
33943;DHT22;66763;47.856;17.462;2023-04-29T03:37:08;16.30;45.10
33943;DHT22;66763;47.856;17.462;2023-04-29T03:39:34;16.30;45.10
33943;DHT22;66763;47.856;17.462;2023-04-29T03:41:59;16.30;45.10
33943;DHT22;66763;47.856;17.462;2023-04-29T03:44:26;16.30;45.10
33943;DHT22;66763;47.856;17.462;2023-04-29T03:46:53;16.30;45.10
33943;DHT22;66763;47.856;17.462;2023-04-29T03:49:18;16.30;45.10
33943;DHT22;66763;47.856;17.462;2023-04-29T03:51:44;16.30;45.20
33943;DHT22;66763;47.856;17.462;2023-04-29T03:54:10;16.30;45.10
33943;DHT22;66763;47.856;17.462;2023-04-29T03:56:35;16.30;45.10
33943;DHT22;66763;47.856;17.462;2023-04-29T03:59:01;16.30;45.10
33943;DHT22;66763;47.856;17.462;2023-04-29T04:01:26;16.30;45.10
33943;DHT22;66763;47.856;17.462;2023-04-29T04:03:52;16.30;45.10
33943;DHT22;66763;47.856;17.462;2023-04-29T04:06:17;16.30;45.10
33943;DHT22;66763;47.856;17.462;2023-04-29T04:08:43;16.30;45.10
33943;DHT22;66763;47.856;17.462;2023-04-29T04:11:08;16.30;45.10
33943;DHT22;66763;47.856;17.462;2023-04-29T04:13:34;16.30;45.10
33943;DHT22;66763;47.856;17.462;2023-04-29T04:15:59;16.30;45.10
33943;DHT22;66763;47.856;17.462;2023-04-29T04:18:25;16.30;45.20
33943;DHT22;66763;47.856;17.462;2023-04-29T04:20:50;16.30;45.20
33943;DHT22;66763;47.856;17.462;2023-04-29T04:23:16;16.30;45.10
33943;DHT22;66763;47.856;17.462;2023-04-29T04:25:45;16.30;45.10
33943;DHT22;66763;47.856;17.462;2023-04-29T04:28:11;16.30;45.10
33943;DHT22;66763;47.856;17.462;2023-04-29T04:30:36;16.30;45.20
33943;DHT22;66763;47.856;17.462;2023-04-29T04:33:02;16.30;45.10
33943;DHT22;66763;47.856;17.462;2023-04-29T04:35:28;16.30;45.10
33943;DHT22;66763;47.856;17.462;2023-04-29T04:37:53;16.30;45.10
33943;DHT22;66763;47.856;17.462;2023-04-29T04:40:19;16.30;45.10
33943;DHT22;66763;47.856;17.462;2023-04-29T04:42:45;16.30;45.20
33943;DHT22;66763;47.856;17.462;2023-04-29T04:45:10;16.30;45.10
33943;DHT22;66763;47.856;17.462;2023-04-29T04:47:36;16.30;45.20
33943;DHT22;66763;47.856;17.462;2023-04-29T04:50:02;16.30;45.20
33943;DHT22;66763;47.856;17.462;2023-04-29T04:52:28;16.30;45.10
33943;DHT22;66763;47.856;17.462;2023-04-29T04:54:54;16.30;45.20
33943;DHT22;66763;47.856;17.462;2023-04-29T04:57:19;16.30;45.20
33943;DHT22;66763;47.856;17.462;2023-04-29T04:59:45;16.30;45.20
33943;DHT22;66763;47.856;17.462;2023-04-29T05:02:10;16.30;45.20
33943;DHT22;66763;47.856;17.462;2023-04-29T05:04:36;16.30;45.10
33943;DHT22;66763;47.856;17.462;2023-04-29T05:07:01;16.30;45.10
33943;DHT22;66763;47.856;17.462;2023-04-29T05:09:27;16.30;45.20
33943;DHT22;66763;47.856;17.462;2023-04-29T05:11:52;16.30;45.10
33943;DHT22;66763;47.856;17.462;2023-04-29T05:14:18;16.30;45.10
33943;DHT22;66763;47.856;17.462;2023-04-29T05:16:44;16.30;45.10
33943;DHT22;66763;47.856;17.462;2023-04-29T05:19:10;16.30;45.20
33943;DHT22;66763;47.856;17.462;2023-04-29T05:21:36;16.30;45.20
33943;DHT22;66763;47.856;17.462;2023-04-29T05:24:01;16.30;45.20
33943;DHT22;66763;47.856;17.462;2023-04-29T05:26:27;16.30;45.80
33943;DHT22;66763;47.856;17.462;2023-04-29T05:28:52;16.20;45.10
33943;DHT22;66763;47.856;17.462;2023-04-29T05:31:19;16.30;45.20
33943;DHT22;66763;47.856;17.462;2023-04-29T05:33:45;16.30;45.20
33943;DHT22;66763;47.856;17.462;2023-04-29T05:36:10;16.30;45.10
33943;DHT22;66763;47.856;17.462;2023-04-29T05:38:36;16.30;45.10
33943;DHT22;66763;47.856;17.462;2023-04-29T05:41:02;16.30;45.10
33943;DHT22;66763;47.856;17.462;2023-04-29T05:43:28;16.30;45.10
33943;DHT22;66763;47.856;17.462;2023-04-29T05:45:53;16.30;45.10
33943;DHT22;66763;47.856;17.462;2023-04-29T05:48:20;16.30;45.10
33943;DHT22;66763;47.856;17.462;2023-04-29T05:50:45;16.30;45.10
33943;DHT22;66763;47.856;17.462;2023-04-29T05:53:12;16.30;45.10
33943;DHT22;66763;47.856;17.462;2023-04-29T05:55:38;16.30;45.10
33943;DHT22;66763;47.856;17.462;2023-04-29T05:58:03;16.30;45.10
33943;DHT22;66763;47.856;17.462;2023-04-29T06:00:29;16.30;45.10
33943;DHT22;66763;47.856;17.462;2023-04-29T06:02:56;16.30;45.10
33943;DHT22;66763;47.856;17.462;2023-04-29T06:05:21;16.30;45.00
33943;DHT22;66763;47.856;17.462;2023-04-29T06:07:47;16.30;45.00
33943;DHT22;66763;47.856;17.462;2023-04-29T06:10:12;16.30;45.00
33943;DHT22;66763;47.856;17.462;2023-04-29T06:12:38;16.30;45.00
33943;DHT22;66763;47.856;17.462;2023-04-29T06:15:03;16.30;45.00
33943;DHT22;66763;47.856;17.462;2023-04-29T06:17:29;16.30;45.00
33943;DHT22;66763;47.856;17.462;2023-04-29T06:19:54;16.30;45.00
33943;DHT22;66763;47.856;17.462;2023-04-29T06:22:20;16.30;44.90
33943;DHT22;66763;47.856;17.462;2023-04-29T06:24:46;16.30;44.90
33943;DHT22;66763;47.856;17.462;2023-04-29T06:27:14;16.40;45.00
33943;DHT22;66763;47.856;17.462;2023-04-29T06:29:40;16.30;44.90
33943;DHT22;66763;47.856;17.462;2023-04-29T06:32:05;16.30;44.90
33943;DHT22;66763;47.856;17.462;2023-04-29T06:34:31;16.40;45.00
33943;DHT22;66763;47.856;17.462;2023-04-29T06:36:56;16.30;44.80
33943;DHT22;66763;47.856;17.462;2023-04-29T06:39:22;16.40;44.90
33943;DHT22;66763;47.856;17.462;2023-04-29T06:41:47;16.40;44.90
33943;DHT22;66763;47.856;17.462;2023-04-29T06:44:13;16.40;44.80
33943;DHT22;66763;47.856;17.462;2023-04-29T06:46:38;16.40;44.90
33943;DHT22;66763;47.856;17.462;2023-04-29T06:49:04;16.40;44.90
33943;DHT22;66763;47.856;17.462;2023-04-29T06:51:31;16.40;45.00
33943;DHT22;66763;47.856;17.462;2023-04-29T06:53:56;16.40;45.00
33943;DHT22;66763;47.856;17.462;2023-04-29T06:56:22;16.30;45.00
33943;DHT22;66763;47.856;17.462;2023-04-29T06:58:48;16.30;45.00
33943;DHT22;66763;47.856;17.462;2023-04-29T07:01:13;16.30;45.00
33943;DHT22;66763;47.856;17.462;2023-04-29T07:03:39;16.30;45.10
33943;DHT22;66763;47.856;17.462;2023-04-29T07:06:04;16.30;45.10
33943;DHT22;66763;47.856;17.462;2023-04-29T07:08:30;16.30;45.20
33943;DHT22;66763;47.856;17.462;2023-04-29T07:10:56;16.30;45.20
33943;DHT22;66763;47.856;17.462;2023-04-29T07:13:22;16.30;45.20
33943;DHT22;66763;47.856;17.462;2023-04-29T07:15:48;16.30;45.20
33943;DHT22;66763;47.856;17.462;2023-04-29T07:18:13;16.30;45.10
33943;DHT22;66763;47.856;17.462;2023-04-29T07:20:39;16.30;45.10
33943;DHT22;66763;47.856;17.462;2023-04-29T07:23:04;16.30;45.10
33943;DHT22;66763;47.856;17.462;2023-04-29T07:25:30;16.30;45.20
33943;DHT22;66763;47.856;17.462;2023-04-29T07:27:55;16.30;45.10
33943;DHT22;66763;47.856;17.462;2023-04-29T07:30:21;16.30;45.20
33943;DHT22;66763;47.856;17.462;2023-04-29T07:32:47;16.30;45.20
33943;DHT22;66763;47.856;17.462;2023-04-29T07:35:13;16.30;45.20
33943;DHT22;66763;47.856;17.462;2023-04-29T07:37:39;16.30;45.30
33943;DHT22;66763;47.856;17.462;2023-04-29T07:40:05;16.40;45.30
33943;DHT22;66763;47.856;17.462;2023-04-29T07:42:31;16.30;45.20
33943;DHT22;66763;47.856;17.462;2023-04-29T07:44:57;16.30;45.20
33943;DHT22;66763;47.856;17.462;2023-04-29T07:47:22;16.30;45.30
33943;DHT22;66763;47.856;17.462;2023-04-29T07:49:48;16.30;45.20
33943;DHT22;66763;47.856;17.462;2023-04-29T07:52:13;16.30;45.30
33943;DHT22;66763;47.856;17.462;2023-04-29T07:54:39;16.30;45.20
33943;DHT22;66763;47.856;17.462;2023-04-29T07:57:04;16.30;45.30
33943;DHT22;66763;47.856;17.462;2023-04-29T07:59:30;16.30;45.30
33943;DHT22;66763;47.856;17.462;2023-04-29T08:01:56;16.30;45.20
33943;DHT22;66763;47.856;17.462;2023-04-29T08:04:21;16.30;45.30
33943;DHT22;66763;47.856;17.462;2023-04-29T08:06:47;16.30;45.20
33943;DHT22;66763;47.856;17.462;2023-04-29T08:09:14;16.30;45.30
33943;DHT22;66763;47.856;17.462;2023-04-29T08:11:40;16.30;45.20
33943;DHT22;66763;47.856;17.462;2023-04-29T08:14:05;16.30;45.20
33943;DHT22;66763;47.856;17.462;2023-04-29T08:16:31;16.30;45.30
33943;DHT22;66763;47.856;17.462;2023-04-29T08:18:56;16.30;45.20
33943;DHT22;66763;47.856;17.462;2023-04-29T08:21:22;16.30;45.20
33943;DHT22;66763;47.856;17.462;2023-04-29T08:23:47;16.30;45.20
33943;DHT22;66763;47.856;17.462;2023-04-29T08:26:14;16.30;45.10
33943;DHT22;66763;47.856;17.462;2023-04-29T08:28:40;16.30;45.10
33943;DHT22;66763;47.856;17.462;2023-04-29T08:31:05;16.30;45.10
33943;DHT22;66763;47.856;17.462;2023-04-29T08:33:37;16.40;45.10
33943;DHT22;66763;47.856;17.462;2023-04-29T08:36:03;16.40;45.10
33943;DHT22;66763;47.856;17.462;2023-04-29T08:38:29;16.30;45.10
33943;DHT22;66763;47.856;17.462;2023-04-29T08:40:54;16.30;45.10
33943;DHT22;66763;47.856;17.462;2023-04-29T08:43:20;16.30;45.10
33943;DHT22;66763;47.856;17.462;2023-04-29T08:45:46;16.30;45.10
33943;DHT22;66763;47.856;17.462;2023-04-29T08:48:12;16.30;45.10
33943;DHT22;66763;47.856;17.462;2023-04-29T08:50:39;16.30;45.10
33943;DHT22;66763;47.856;17.462;2023-04-29T08:53:05;16.30;45.10
33943;DHT22;66763;47.856;17.462;2023-04-29T08:55:35;16.30;45.10
33943;DHT22;66763;47.856;17.462;2023-04-29T08:58:01;16.30;45.10
33943;DHT22;66763;47.856;17.462;2023-04-29T09:00:27;16.30;45.10
33943;DHT22;66763;47.856;17.462;2023-04-29T09:02:55;16.30;45.10
33943;DHT22;66763;47.856;17.462;2023-04-29T09:05:21;16.30;45.20
33943;DHT22;66763;47.856;17.462;2023-04-29T09:07:49;16.30;45.20
33943;DHT22;66763;47.856;17.462;2023-04-29T09:10:15;16.30;45.20
33943;DHT22;66763;47.856;17.462;2023-04-29T09:12:41;16.30;45.20
33943;DHT22;66763;47.856;17.462;2023-04-29T09:15:06;16.30;45.10
33943;DHT22;66763;47.856;17.462;2023-04-29T09:25:38;16.30;45.10
33943;DHT22;66763;47.856;17.462;2023-04-29T09:28:14;16.30;45.10
33943;DHT22;66763;47.856;17.462;2023-04-29T09:30:46;16.30;45.70
33943;DHT22;66763;47.856;17.462;2023-04-29T09:33:12;16.30;45.10
33943;DHT22;66763;47.856;17.462;2023-04-29T09:35:40;16.30;45.10
33943;DHT22;66763;47.856;17.462;2023-04-29T09:38:12;16.30;45.10
33943;DHT22;66763;47.856;17.462;2023-04-29T09:40:38;16.40;45.10
33943;DHT22;66763;47.856;17.462;2023-04-29T09:43:04;16.30;45.10
33943;DHT22;66763;47.856;17.462;2023-04-29T09:45:36;16.40;45.10
33943;DHT22;66763;47.856;17.462;2023-04-29T09:48:02;16.30;45.10
33943;DHT22;66763;47.856;17.462;2023-04-29T09:50:28;16.40;45.10
33943;DHT22;66763;47.856;17.462;2023-04-29T09:52:53;16.40;45.10
33943;DHT22;66763;47.856;17.462;2023-04-29T09:55:19;16.40;45.10
33943;DHT22;66763;47.856;17.462;2023-04-29T09:57:44;16.40;45.10
33943;DHT22;66763;47.856;17.462;2023-04-29T10:00:10;16.40;45.10
33943;DHT22;66763;47.856;17.462;2023-04-29T10:02:36;16.40;45.10
33943;DHT22;66763;47.856;17.462;2023-04-29T10:05:05;16.40;45.00
33943;DHT22;66763;47.856;17.462;2023-04-29T10:07:31;16.40;45.00
33943;DHT22;66763;47.856;17.462;2023-04-29T10:09:57;16.40;45.00
33943;DHT22;66763;47.856;17.462;2023-04-29T10:12:22;16.40;45.10
33943;DHT22;66763;47.856;17.462;2023-04-29T10:14:57;16.40;45.00
33943;DHT22;66763;47.856;17.462;2023-04-29T10:17:31;16.40;45.00
33943;DHT22;66763;47.856;17.462;2023-04-29T10:20:04;16.40;45.00
33943;DHT22;66763;47.856;17.462;2023-04-29T10:25:08;16.40;45.00
33943;DHT22;66763;47.856;17.462;2023-04-29T10:27:35;16.40;45.00
33943;DHT22;66763;47.856;17.462;2023-04-29T10:30:01;16.40;45.00
33943;DHT22;66763;47.856;17.462;2023-04-29T10:32:29;16.40;45.00
33943;DHT22;66763;47.856;17.462;2023-04-29T10:34:55;16.40;45.00
33943;DHT22;66763;47.856;17.462;2023-04-29T10:37:22;16.40;45.00
33943;DHT22;66763;47.856;17.462;2023-04-29T10:40:21;16.40;45.00
33943;DHT22;66763;47.856;17.462;2023-04-29T10:42:44;16.40;45.00
33943;DHT22;66763;47.856;17.462;2023-04-29T10:45:19;16.40;45.10
33943;DHT22;66763;47.856;17.462;2023-04-29T10:50:27;16.40;45.10
33943;DHT22;66763;47.856;17.462;2023-04-29T10:52:55;16.40;45.20
33943;DHT22;66763;47.856;17.462;2023-04-29T10:55:22;16.40;45.20
33943;DHT22;66763;47.856;17.462;2023-04-29T10:57:47;16.40;45.20
33943;DHT22;66763;47.856;17.462;2023-04-29T11:00:34;16.40;45.20
33943;DHT22;66763;47.856;17.462;2023-04-29T11:03:00;16.40;45.20
33943;DHT22;66763;47.856;17.462;2023-04-29T11:05:30;16.40;45.20
33943;DHT22;66763;47.856;17.462;2023-04-29T11:08:12;16.40;45.10
33943;DHT22;66763;47.856;17.462;2023-04-29T11:10:41;16.40;45.20
33943;DHT22;66763;47.856;17.462;2023-04-29T11:13:25;16.40;45.20
33943;DHT22;66763;47.856;17.462;2023-04-29T11:15:51;16.40;45.30
33943;DHT22;66763;47.856;17.462;2023-04-29T11:18:17;16.40;45.30
33943;DHT22;66763;47.856;17.462;2023-04-29T11:23:27;16.40;45.30
33943;DHT22;66763;47.856;17.462;2023-04-29T11:25:53;16.40;45.30
33943;DHT22;66763;47.856;17.462;2023-04-29T11:28:18;16.30;45.40
33943;DHT22;66763;47.856;17.462;2023-04-29T11:30:44;16.40;45.50
33943;DHT22;66763;47.856;17.462;2023-04-29T11:33:10;16.40;45.50
33943;DHT22;66763;47.856;17.462;2023-04-29T11:35:36;16.40;45.40
33943;DHT22;66763;47.856;17.462;2023-04-29T11:38:03;16.40;45.40
33943;DHT22;66763;47.856;17.462;2023-04-29T11:40:30;16.40;45.40
33943;DHT22;66763;47.856;17.462;2023-04-29T11:42:56;16.40;45.40
33943;DHT22;66763;47.856;17.462;2023-04-29T11:45:22;16.40;45.40
33943;DHT22;66763;47.856;17.462;2023-04-29T11:47:47;16.40;45.40
33943;DHT22;66763;47.856;17.462;2023-04-29T11:50:13;16.40;45.40
33943;DHT22;66763;47.856;17.462;2023-04-29T11:52:42;16.40;45.40
33943;DHT22;66763;47.856;17.462;2023-04-29T11:55:09;16.40;45.40
33943;DHT22;66763;47.856;17.462;2023-04-29T11:57:35;16.40;45.50
33943;DHT22;66763;47.856;17.462;2023-04-29T12:00:01;16.40;45.40
33943;DHT22;66763;47.856;17.462;2023-04-29T12:02:30;16.40;45.60
33943;DHT22;66763;47.856;17.462;2023-04-29T12:04:56;16.40;46.00
33943;DHT22;66763;47.856;17.462;2023-04-29T12:07:22;16.40;45.60
33943;DHT22;66763;47.856;17.462;2023-04-29T12:09:48;16.40;45.50
33943;DHT22;66763;47.856;17.462;2023-04-29T12:12:13;16.40;45.50
33943;DHT22;66763;47.856;17.462;2023-04-29T12:14:39;16.40;45.60
33943;DHT22;66763;47.856;17.462;2023-04-29T12:17:05;16.40;45.60
33943;DHT22;66763;47.856;17.462;2023-04-29T12:19:31;16.40;45.60
33943;DHT22;66763;47.856;17.462;2023-04-29T12:22:01;16.40;45.50
33943;DHT22;66763;47.856;17.462;2023-04-29T12:24:27;16.40;45.60
33943;DHT22;66763;47.856;17.462;2023-04-29T12:26:53;16.40;45.60
33943;DHT22;66763;47.856;17.462;2023-04-29T12:29:22;16.40;45.60
33943;DHT22;66763;47.856;17.462;2023-04-29T12:31:48;16.30;45.50
33943;DHT22;66763;47.856;17.462;2023-04-29T12:34:13;16.40;45.60
33943;DHT22;66763;47.856;17.462;2023-04-29T12:36:42;16.30;45.50
33943;DHT22;66763;47.856;17.462;2023-04-29T12:39:09;16.40;45.50
33943;DHT22;66763;47.856;17.462;2023-04-29T12:41:35;16.40;45.50
33943;DHT22;66763;47.856;17.462;2023-04-29T12:44:00;16.40;45.60
33943;DHT22;66763;47.856;17.462;2023-04-29T12:46:26;16.40;45.60
33943;DHT22;66763;47.856;17.462;2023-04-29T12:48:51;16.40;45.60
33943;DHT22;66763;47.856;17.462;2023-04-29T12:51:17;16.40;45.60
33943;DHT22;66763;47.856;17.462;2023-04-29T12:53:42;16.40;45.60
33943;DHT22;66763;47.856;17.462;2023-04-29T12:56:10;16.40;45.60
33943;DHT22;66763;47.856;17.462;2023-04-29T12:58:37;16.40;45.60
33943;DHT22;66763;47.856;17.462;2023-04-29T13:01:02;16.40;45.60
33943;DHT22;66763;47.856;17.462;2023-04-29T13:03:28;16.40;45.60
33943;DHT22;66763;47.856;17.462;2023-04-29T13:05:53;16.40;45.60
33943;DHT22;66763;47.856;17.462;2023-04-29T13:08:19;16.40;45.40
33943;DHT22;66763;47.856;17.462;2023-04-29T13:10:45;16.40;45.40
33943;DHT22;66763;47.856;17.462;2023-04-29T13:13:10;16.40;45.30
33943;DHT22;66763;47.856;17.462;2023-04-29T13:15:36;16.40;45.30
33943;DHT22;66763;47.856;17.462;2023-04-29T13:18:03;16.40;45.20
33943;DHT22;66763;47.856;17.462;2023-04-29T13:20:29;16.40;45.20
33943;DHT22;66763;47.856;17.462;2023-04-29T13:22:54;16.40;45.20
33943;DHT22;66763;47.856;17.462;2023-04-29T13:25:20;16.40;45.10
33943;DHT22;66763;47.856;17.462;2023-04-29T13:27:45;16.40;45.10
33943;DHT22;66763;47.856;17.462;2023-04-29T13:30:11;16.40;45.10
33943;DHT22;66763;47.856;17.462;2023-04-29T13:32:36;16.40;45.10
33943;DHT22;66763;47.856;17.462;2023-04-29T13:35:05;16.40;45.10
33943;DHT22;66763;47.856;17.462;2023-04-29T13:37:30;16.40;45.10
33943;DHT22;66763;47.856;17.462;2023-04-29T13:39:56;16.40;45.10
33943;DHT22;66763;47.856;17.462;2023-04-29T13:42:21;16.50;45.10
33943;DHT22;66763;47.856;17.462;2023-04-29T13:44:47;16.40;45.10
33943;DHT22;66763;47.856;17.462;2023-04-29T13:47:14;16.40;45.10
33943;DHT22;66763;47.856;17.462;2023-04-29T13:49:40;16.50;45.10
33943;DHT22;66763;47.856;17.462;2023-04-29T13:52:06;16.50;45.10
33943;DHT22;66763;47.856;17.462;2023-04-29T13:54:32;16.40;45.10
33943;DHT22;66763;47.856;17.462;2023-04-29T13:56:57;16.40;45.10
33943;DHT22;66763;47.856;17.462;2023-04-29T13:59:23;16.50;45.20
33943;DHT22;66763;47.856;17.462;2023-04-29T14:01:48;16.50;45.10
33943;DHT22;66763;47.856;17.462;2023-04-29T14:04:15;16.40;45.10
33943;DHT22;66763;47.856;17.462;2023-04-29T14:06:41;16.50;45.10
33943;DHT22;66763;47.856;17.462;2023-04-29T14:09:07;16.50;45.20
33943;DHT22;66763;47.856;17.462;2023-04-29T14:11:32;16.50;45.20
33943;DHT22;66763;47.856;17.462;2023-04-29T14:14:01;16.40;45.10
33943;DHT22;66763;47.856;17.462;2023-04-29T14:16:26;16.50;45.20
33943;DHT22;66763;47.856;17.462;2023-04-29T14:18:53;16.50;45.20
33943;DHT22;66763;47.856;17.462;2023-04-29T14:21:18;16.50;45.20
33943;DHT22;66763;47.856;17.462;2023-04-29T14:23:46;16.50;45.20
33943;DHT22;66763;47.856;17.462;2023-04-29T14:26:12;16.50;45.20
33943;DHT22;66763;47.856;17.462;2023-04-29T14:28:37;16.50;45.20
33943;DHT22;66763;47.856;17.462;2023-04-29T14:31:03;16.50;45.20
33943;DHT22;66763;47.856;17.462;2023-04-29T14:33:28;16.50;45.20
33943;DHT22;66763;47.856;17.462;2023-04-29T14:35:54;16.50;45.30
33943;DHT22;66763;47.856;17.462;2023-04-29T14:38:19;16.50;45.30
33943;DHT22;66763;47.856;17.462;2023-04-29T14:40:45;16.50;45.30
33943;DHT22;66763;47.856;17.462;2023-04-29T14:43:10;16.50;45.20
33943;DHT22;66763;47.856;17.462;2023-04-29T14:45:35;16.40;45.20
33943;DHT22;66763;47.856;17.462;2023-04-29T14:48:01;16.50;45.80
33943;DHT22;66763;47.856;17.462;2023-04-29T14:50:28;16.40;45.30
33943;DHT22;66763;47.856;17.462;2023-04-29T14:52:54;16.50;45.30
33943;DHT22;66763;47.856;17.462;2023-04-29T14:55:22;16.40;45.20
33943;DHT22;66763;47.856;17.462;2023-04-29T14:57:47;16.50;45.30
33943;DHT22;66763;47.856;17.462;2023-04-29T15:00:13;16.40;45.20
33943;DHT22;66763;47.856;17.462;2023-04-29T15:02:39;16.50;45.30
33943;DHT22;66763;47.856;17.462;2023-04-29T15:05:05;16.50;45.30
33943;DHT22;66763;47.856;17.462;2023-04-29T15:07:30;16.40;45.20
33943;DHT22;66763;47.856;17.462;2023-04-29T15:09:56;16.50;45.30
33943;DHT22;66763;47.856;17.462;2023-04-29T15:12:22;16.50;45.30
33943;DHT22;66763;47.856;17.462;2023-04-29T15:14:47;16.50;45.30
33943;DHT22;66763;47.856;17.462;2023-04-29T15:17:13;16.50;45.30
33943;DHT22;66763;47.856;17.462;2023-04-29T15:19:38;16.40;45.20
33943;DHT22;66763;47.856;17.462;2023-04-29T15:22:04;16.40;45.30
33943;DHT22;66763;47.856;17.462;2023-04-29T15:24:29;16.40;45.30
33943;DHT22;66763;47.856;17.462;2023-04-29T15:26:55;16.50;45.30
33943;DHT22;66763;47.856;17.462;2023-04-29T15:29:20;16.40;45.30
33943;DHT22;66763;47.856;17.462;2023-04-29T15:31:46;16.50;45.30
33943;DHT22;66763;47.856;17.462;2023-04-29T15:34:11;16.50;45.30
33943;DHT22;66763;47.856;17.462;2023-04-29T15:36:37;16.40;45.30
33943;DHT22;66763;47.856;17.462;2023-04-29T15:39:02;16.40;45.30